Time;durP1;ratioP1;P1;durP2;ratioP2;P2;SDS_P1;SDS_P2;PMS_P1;PMS_P2;Temp;Humidity;BMP_temperature;BMP_pressure;BME280_temperature;BME280_humidity;BME280_pressure;Samples;Min_cycle;Max_cycle;Signal;HPM_P1;HPM_P2
2023/05/29 00:01:11;;;;;;;11.30;2.55;;;10.40;99.90;;;;;;5022527;28;20544;-63
2023/05/29 00:03:38;;;;;;;11.20;2.70;;;10.30;99.90;;;;;;5055509;28;20200;-65
2023/05/29 00:06:05;;;;;;;7.53;2.38;;;10.30;99.90;;;;;;5051381;28;20395;-63
2023/05/29 00:08:32;;;;;;;12.10;2.65;;;10.20;99.90;;;;;;5062669;28;20207;-63
2023/05/29 00:11:00;;;;;;;8.25;2.15;;;10.10;99.90;;;;;;5052217;28;20200;-63
2023/05/29 00:13:27;;;;;;;14.32;2.50;;;10.10;99.90;;;;;;5065257;28;20200;-63
2023/05/29 00:15:54;;;;;;;10.02;2.38;;;10.10;99.90;;;;;;5018045;28;20577;-63
2023/05/29 00:18:21;;;;;;;12.73;2.17;;;10.10;99.90;;;;;;5061727;28;20205;-63
2023/05/29 00:20:48;;;;;;;8.30;2.33;;;10.20;99.90;;;;;;5054768;28;20196;-63
2023/05/29 00:23:14;;;;;;;10.32;1.95;;;10.20;99.90;;;;;;5059404;28;20697;-63
2023/05/29 00:25:41;;;;;;;9.73;2.05;;;10.10;99.90;;;;;;5049616;28;20232;-63
2023/05/29 00:28:11;;;;;;;11.00;2.55;;;10.10;99.90;;;;;;5060001;28;20224;-63
2023/05/29 00:30:38;;;;;;;16.60;2.72;;;10.00;99.90;;;;;;5036311;28;20200;-63
2023/05/29 00:33:05;;;;;;;5.60;2.10;;;9.90;99.90;;;;;;5049279;28;20756;-63
2023/05/29 00:35:32;;;;;;;8.52;2.20;;;9.90;99.90;;;;;;5067111;28;20226;-63
2023/05/29 00:37:59;;;;;;;9.15;2.38;;;10.00;99.90;;;;;;5046905;28;20211;-63
2023/05/29 00:40:26;;;;;;;10.20;2.92;;;9.90;99.90;;;;;;5050003;28;20662;-63
2023/05/29 00:42:53;;;;;;;8.57;2.03;;;10.00;99.90;;;;;;5060006;28;20207;-63
2023/05/29 00:45:21;;;;;;;7.03;2.42;;;9.90;99.90;;;;;;5034562;28;20678;-63
2023/05/29 00:47:48;;;;;;;8.35;2.78;;;9.80;99.90;;;;;;5049371;28;20234;-63
2023/05/29 00:50:15;;;;;;;6.78;2.35;;;9.70;99.90;;;;;;5062401;28;20555;-63
2023/05/29 00:52:45;;;;;;;8.90;2.35;;;9.70;99.90;;;;;;5052261;28;20200;-63
2023/05/29 00:55:13;;;;;;;8.25;2.35;;;9.70;99.90;;;;;;5046545;28;20212;-63
2023/05/29 00:57:40;;;;;;;12.05;2.65;;;9.70;99.90;;;;;;5062561;28;20203;-63
2023/05/29 01:00:09;;;;;;;12.43;2.80;;;9.80;99.90;;;;;;5061585;28;20337;-63
2023/05/29 01:02:40;;;;;;;14.25;3.55;;;9.80;99.90;;;;;;5023764;28;20270;-64
2023/05/29 01:05:09;;;;;;;6.60;1.83;;;9.80;99.90;;;;;;5058773;28;20425;-63
2023/05/29 01:07:36;;;;;;;11.38;2.55;;;9.80;99.90;;;;;;5052019;28;20229;-63
2023/05/29 01:10:03;;;;;;;12.85;2.97;;;9.80;99.90;;;;;;5046086;28;20192;-63
2023/05/29 01:12:38;;;;;;;15.02;2.63;;;9.70;99.90;;;;;;5064892;28;20197;-63
2023/05/29 01:15:19;;;;;;;9.85;2.38;;;9.70;99.90;;;;;;5057590;28;20761;-63
2023/05/29 01:18:01;;;;;;;16.67;3.25;;;9.90;99.90;;;;;;5032791;28;20200;-63
2023/05/29 01:20:35;;;;;;;7.88;2.70;;;9.90;99.90;;;;;;5061246;28;20536;-63
2023/05/29 01:23:14;;;;;;;9.68;2.95;;;9.80;99.90;;;;;;5047783;28;20192;-63
2023/05/29 01:25:54;;;;;;;19.35;3.22;;;9.80;99.90;;;;;;5063605;28;20230;-63
2023/05/29 01:28:27;;;;;;;13.23;2.53;;;9.80;99.90;;;;;;5057230;28;20708;-64
2023/05/29 01:30:58;;;;;;;14.60;2.75;;;9.90;99.90;;;;;;5062300;28;20196;-64
2023/05/29 01:33:24;;;;;;;15.20;2.67;;;9.80;99.90;;;;;;5033085;28;20196;-63
2023/05/29 01:35:51;;;;;;;11.00;2.92;;;9.80;99.90;;;;;;5050743;28;20204;-63
2023/05/29 01:38:18;;;;;;;16.30;2.80;;;9.70;99.90;;;;;;5046939;28;22643;-63
2023/05/29 01:40:45;;;;;;;11.05;2.90;;;9.70;99.90;;;;;;5059668;28;20690;-63
2023/05/29 01:43:14;;;;;;;12.93;2.78;;;9.60;99.90;;;;;;5044433;28;20208;-63
2023/05/29 01:45:44;;;;;;;15.80;2.65;;;9.50;99.90;;;;;;5063082;28;20618;-63
2023/05/29 01:48:11;;;;;;;12.65;2.75;;;9.60;99.90;;;;;;5028772;28;21342;-63
2023/05/29 01:50:38;;;;;;;11.45;2.25;;;9.60;99.90;;;;;;5048280;28;20219;-63
2023/05/29 01:53:05;;;;;;;10.98;2.47;;;9.50;99.90;;;;;;5060813;28;20416;-63
2023/05/29 01:55:32;;;;;;;13.52;2.65;;;9.60;99.90;;;;;;5048832;28;20571;-63
2023/05/29 01:57:59;;;;;;;9.82;2.40;;;9.60;99.90;;;;;;5050118;28;20237;-63
2023/05/29 02:00:26;;;;;;;10.32;3.03;;;9.60;99.90;;;;;;5060830;28;21121;-64
2023/05/29 02:02:54;;;;;;;6.28;2.08;;;9.60;99.90;;;;;;5056640;28;20207;-63
2023/05/29 02:05:21;;;;;;;9.18;3.17;;;9.50;99.90;;;;;;5015188;28;21257;-63
2023/05/29 02:07:48;;;;;;;8.00;2.35;;;9.50;99.90;;;;;;5065068;28;20224;-63
2023/05/29 02:10:15;;;;;;;8.35;2.03;;;9.40;99.90;;;;;;5049317;28;20205;-63
2023/05/29 02:12:42;;;;;;;10.45;2.53;;;9.40;99.90;;;;;;5064447;28;20287;-63
2023/05/29 02:15:10;;;;;;;7.88;2.17;;;9.50;99.90;;;;;;5047769;28;20196;-64
2023/05/29 02:17:37;;;;;;;12.55;2.75;;;9.30;99.90;;;;;;5065456;28;20200;-63
2023/05/29 02:20:07;;;;;;;9.77;3.63;;;9.30;99.90;;;;;;5028619;28;20201;-63
2023/05/29 02:22:34;;;;;;;9.65;2.47;;;9.30;99.90;;;;;;5054896;28;20254;-64
2023/05/29 02:25:00;;;;;;;12.95;2.55;;;9.20;99.90;;;;;;5061894;28;20344;-63
2023/05/29 02:27:27;;;;;;;10.93;2.35;;;9.20;99.90;;;;;;5052038;28;20999;-63
2023/05/29 02:29:54;;;;;;;7.82;2.03;;;9.10;99.90;;;;;;5054358;28;20663;-63
2023/05/29 02:32:22;;;;;;;9.73;2.63;;;9.00;99.90;;;;;;5060195;28;20227;-63
2023/05/29 02:34:49;;;;;;;4.00;2.45;;;8.90;99.90;;;;;;5047819;28;20287;-64
2023/05/29 02:37:17;;;;;;;8.25;2.75;;;8.80;99.90;;;;;;5029239;28;20355;-63
2023/05/29 02:39:44;;;;;;;8.63;2.45;;;8.80;99.90;;;;;;5062387;28;20283;-63
2023/05/29 02:42:11;;;;;;;6.15;2.22;;;8.80;99.90;;;;;;5047898;28;20379;-63
2023/05/29 02:44:38;;;;;;;6.00;2.60;;;8.70;99.90;;;;;;5063054;28;20209;-63
2023/05/29 02:47:05;;;;;;;13.10;2.72;;;8.70;99.90;;;;;;5044261;28;20364;-63
2023/05/29 02:49:32;;;;;;;9.20;2.65;;;8.70;99.90;;;;;;5062204;28;20200;-63
2023/05/29 02:51:59;;;;;;;6.10;1.80;;;8.80;99.90;;;;;;5020157;28;20204;-63
2023/05/29 02:54:27;;;;;;;6.50;2.10;;;8.70;99.90;;;;;;5061165;28;20212;-63
2023/05/29 02:56:54;;;;;;;9.95;2.10;;;8.70;99.90;;;;;;5051848;28;20200;-63
2023/05/29 02:59:21;;;;;;;6.07;1.80;;;8.60;99.90;;;;;;5066182;28;20201;-63
2023/05/29 03:01:48;;;;;;;11.23;2.30;;;8.60;99.90;;;;;;5048153;28;20237;-63
2023/05/29 03:04:17;;;;;;;7.20;2.03;;;8.60;99.90;;;;;;5067848;28;20457;-63
2023/05/29 03:06:45;;;;;;;6.82;2.00;;;8.70;99.90;;;;;;5032217;28;20603;-63
2023/05/29 03:09:12;;;;;;;7.78;2.05;;;8.70;99.90;;;;;;5047238;28;20228;-63
2023/05/29 03:11:40;;;;;;;9.75;2.75;;;8.70;99.90;;;;;;5053422;28;20646;-63
2023/05/29 03:14:07;;;;;;;12.07;2.03;;;8.60;99.90;;;;;;5063811;28;20196;-63
2023/05/29 03:16:35;;;;;;;12.25;2.65;;;8.60;99.90;;;;;;5053534;28;20200;-63
2023/05/29 03:19:02;;;;;;;5.38;2.10;;;8.60;99.90;;;;;;5064438;28;20209;-63
2023/05/29 03:21:31;;;;;;;5.30;2.08;;;8.60;99.90;;;;;;5030873;28;20605;-63
2023/05/29 03:23:57;;;;;;;5.03;2.13;;;8.60;99.90;;;;;;5055359;28;20334;-63
2023/05/29 03:26:25;;;;;;;18.30;3.58;;;8.60;99.90;;;;;;5048871;28;20227;-63
2023/05/29 03:28:53;;;;;;;11.60;2.25;;;8.60;99.90;;;;;;5065985;28;20278;-63
2023/05/29 03:31:20;;;;;;;12.07;3.20;;;8.60;99.90;;;;;;5052466;28;20212;-63
2023/05/29 03:33:47;;;;;;;10.35;2.45;;;8.60;99.90;;;;;;5065790;28;20207;-63
2023/05/29 03:36:16;;;;;;;9.65;2.67;;;8.60;99.90;;;;;;5065675;28;20196;-63
2023/05/29 03:38:43;;;;;;;6.45;2.83;;;8.60;99.90;;;;;;5030111;28;20290;-63
2023/05/29 03:41:10;;;;;;;5.90;2.05;;;8.50;99.90;;;;;;5061474;28;20189;-63
2023/05/29 03:43:37;;;;;;;11.38;2.30;;;8.40;99.90;;;;;;5055070;28;20224;-63
2023/05/29 03:46:05;;;;;;;6.60;2.00;;;8.40;99.90;;;;;;5061246;28;20197;-63
2023/05/29 03:48:32;;;;;;;7.00;2.05;;;8.50;99.90;;;;;;5049562;28;20991;-63
2023/05/29 03:50:59;;;;;;;9.60;2.53;;;8.60;99.90;;;;;;5064028;28;20197;-63
2023/05/29 03:53:25;;;;;;;13.75;2.88;;;8.60;99.90;;;;;;5017006;28;20416;-63
2023/05/29 03:55:52;;;;;;;9.93;2.72;;;8.70;99.90;;;;;;5060572;28;20197;-63
2023/05/29 03:58:19;;;;;;;10.55;2.65;;;8.60;99.90;;;;;;5054374;28;20188;-63
2023/05/29 04:00:46;;;;;;;12.45;2.20;;;8.60;99.90;;;;;;5059979;28;20231;-63
2023/05/29 04:03:14;;;;;;;11.60;2.85;;;8.60;99.90;;;;;;5024959;28;20192;-63
2023/05/29 04:05:41;;;;;;;8.85;1.95;;;8.60;99.90;;;;;;5061861;28;20249;-63
2023/05/29 04:08:08;;;;;;;13.55;3.83;;;8.70;99.90;;;;;;5015784;28;20243;-63
2023/05/29 04:10:36;;;;;;;9.90;2.08;;;8.80;99.90;;;;;;5046131;28;20253;-63
2023/05/29 04:13:03;;;;;;;11.50;2.47;;;8.90;99.90;;;;;;5062838;28;20769;-63
2023/05/29 04:15:30;;;;;;;10.15;2.50;;;9.00;99.90;;;;;;5051069;28;20208;-63
2023/05/29 04:17:57;;;;;;;10.63;2.30;;;9.00;99.90;;;;;;5046975;28;20599;-63
2023/05/29 04:20:25;;;;;;;11.70;2.20;;;8.90;99.90;;;;;;5064854;28;20193;-63
2023/05/29 04:22:52;;;;;;;8.02;2.15;;;9.00;99.90;;;;;;5023993;28;20212;-63
2023/05/29 04:25:19;;;;;;;6.78;2.25;;;9.00;99.90;;;;;;5051114;28;20235;-63
2023/05/29 04:27:48;;;;;;;10.82;2.45;;;8.90;99.90;;;;;;5051470;28;21236;-63
2023/05/29 04:30:16;;;;;;;11.00;2.78;;;9.00;99.90;;;;;;5050952;28;20629;-63
2023/05/29 04:32:43;;;;;;;5.22;1.65;;;9.00;99.90;;;;;;5056987;28;20200;-64
2023/05/29 04:35:10;;;;;;;8.63;2.15;;;9.00;99.90;;;;;;5061878;28;20220;-63
2023/05/29 04:37:38;;;;;;;9.88;2.80;;;9.20;99.90;;;;;;5060469;28;20207;-63
2023/05/29 04:40:08;;;;;;;12.02;2.67;;;9.20;99.90;;;;;;5015055;28;20406;-63
2023/05/29 04:42:35;;;;;;;13.90;3.05;;;9.30;99.90;;;;;;5059472;28;20212;-63
2023/05/29 04:45:03;;;;;;;10.90;2.05;;;9.30;99.90;;;;;;5045676;28;20228;-63
2023/05/29 04:47:32;;;;;;;8.95;2.58;;;9.30;99.90;;;;;;5061900;28;20196;-63
2023/05/29 04:50:00;;;;;;;11.25;2.65;;;9.40;99.90;;;;;;5049675;28;20196;-64
2023/05/29 04:52:26;;;;;;;13.55;2.60;;;9.30;99.90;;;;;;5063730;28;20192;-64
2023/05/29 04:54:56;;;;;;;12.57;3.25;;;9.40;99.90;;;;;;5022767;28;20197;-63
2023/05/29 04:57:23;;;;;;;15.52;3.03;;;9.40;99.90;;;;;;5060302;28;20204;-63
2023/05/29 04:59:50;;;;;;;11.10;2.70;;;9.50;99.90;;;;;;5040561;28;20204;-63
2023/05/29 05:02:16;;;;;;;10.85;1.90;;;9.50;99.90;;;;;;5058170;28;20216;-63
2023/05/29 05:04:45;;;;;;;9.50;2.47;;;9.60;99.90;;;;;;5051013;28;20661;-63
2023/05/29 05:07:12;;;;;;;11.07;2.53;;;9.70;99.90;;;;;;5057119;28;20539;-63
2023/05/29 05:09:39;;;;;;;9.18;2.25;;;9.90;99.90;;;;;;5046856;28;20223;-63
2023/05/29 05:12:07;;;;;;;11.90;2.58;;;9.90;99.90;;;;;;5030081;28;20555;-63
2023/05/29 05:14:34;;;;;;;8.85;2.53;;;10.00;99.90;;;;;;5064430;28;20193;-63
2023/05/29 05:17:01;;;;;;;15.82;3.10;;;10.00;99.90;;;;;;5047261;28;20219;-63
2023/05/29 05:19:27;;;;;;;7.53;2.85;;;10.00;99.90;;;;;;5062990;28;20203;-63
2023/05/29 05:21:54;;;;;;;10.02;2.38;;;10.00;99.90;;;;;;5047017;28;20417;-63
2023/05/29 05:24:21;;;;;;;10.52;2.63;;;10.10;99.90;;;;;;5064617;28;20220;-63
2023/05/29 05:26:48;;;;;;;10.10;2.28;;;10.20;99.90;;;;;;5015784;28;20207;-63
2023/05/29 05:29:16;;;;;;;10.15;2.63;;;10.30;99.90;;;;;;5059671;28;20224;-63
2023/05/29 05:31:43;;;;;;;10.13;2.70;;;10.30;99.90;;;;;;5055208;28;20193;-63
2023/05/29 05:34:09;;;;;;;14.65;2.90;;;10.40;99.90;;;;;;5052422;28;20208;-63
2023/05/29 05:36:36;;;;;;;14.95;2.35;;;10.30;99.90;;;;;;5055804;28;20204;-63
2023/05/29 05:39:03;;;;;;;10.98;2.75;;;10.40;99.90;;;;;;5059642;28;20193;-63
2023/05/29 05:41:31;;;;;;;8.63;2.38;;;10.50;99.90;;;;;;5005423;28;20231;-63
2023/05/29 05:43:57;;;;;;;10.90;2.40;;;10.50;99.90;;;;;;5049409;28;20203;-64
2023/05/29 05:46:25;;;;;;;13.98;3.00;;;10.60;99.90;;;;;;5060267;28;20196;-63
2023/05/29 05:48:52;;;;;;;8.60;2.35;;;10.70;99.90;;;;;;5036467;28;20425;-63
2023/05/29 05:51:19;;;;;;;9.57;2.60;;;10.70;99.90;;;;;;5064012;28;20599;-63
2023/05/29 05:53:46;;;;;;;13.38;2.83;;;10.80;99.90;;;;;;5046910;28;20200;-63
2023/05/29 05:56:13;;;;;;;14.98;3.17;;;10.90;99.90;;;;;;5028641;28;20208;-63
2023/05/29 05:58:39;;;;;;;13.70;2.40;;;10.90;99.90;;;;;;5043890;28;20602;-64
2023/05/29 06:01:08;;;;;;;11.05;2.55;;;10.80;99.90;;;;;;5059926;28;20215;-64
2023/05/29 06:03:37;;;;;;;12.25;2.90;;;10.80;99.90;;;;;;5047568;28;20205;-63
2023/05/29 06:06:04;;;;;;;12.63;2.78;;;10.90;99.90;;;;;;5063144;28;20578;-63
2023/05/29 06:08:31;;;;;;;6.65;2.63;;;11.00;99.90;;;;;;5015489;28;20231;-63
2023/05/29 06:10:58;;;;;;;15.40;3.22;;;11.10;99.90;;;;;;5057645;28;20192;-63
2023/05/29 06:13:24;;;;;;;9.55;2.80;;;11.10;99.90;;;;;;5008270;28;20287;-63
2023/05/29 06:15:51;;;;;;;13.40;3.38;;;11.30;99.90;;;;;;5041644;28;20204;-63
2023/05/29 06:18:18;;;;;;;7.60;2.55;;;11.30;99.90;;;;;;5062496;28;20290;-63
2023/05/29 06:20:46;;;;;;;13.63;3.25;;;11.50;99.90;;;;;;5057520;28;20796;-63
2023/05/29 06:23:13;;;;;;;10.45;2.58;;;11.50;99.90;;;;;;5065289;28;20200;-63
2023/05/29 06:25:40;;;;;;;9.65;2.70;;;11.50;99.90;;;;;;5049876;28;20315;-63
2023/05/29 06:28:07;;;;;;;8.43;2.75;;;11.60;99.90;;;;;;5014484;28;21014;-63
2023/05/29 06:30:34;;;;;;;12.35;3.08;;;11.70;99.90;;;;;;5064083;28;20193;-64
2023/05/29 06:33:01;;;;;;;16.83;3.40;;;11.70;99.90;;;;;;5062045;28;20265;-63
2023/05/29 06:35:28;;;;;;;9.52;2.80;;;11.70;99.90;;;;;;5051576;28;20200;-63
2023/05/29 06:37:56;;;;;;;9.07;2.85;;;11.80;99.90;;;;;;5062200;28;20195;-63
2023/05/29 06:40:23;;;;;;;10.98;3.10;;;11.90;99.90;;;;;;5051031;28;20207;-63
2023/05/29 06:42:50;;;;;;;7.88;2.55;;;11.90;99.90;;;;;;5045907;28;20696;-64
2023/05/29 06:45:17;;;;;;;13.60;2.65;;;12.00;99.90;;;;;;5032290;28;20829;-63
2023/05/29 06:47:44;;;;;;;13.82;3.80;;;11.90;99.90;;;;;;5067647;28;20309;-63
2023/05/29 06:50:11;;;;;;;14.27;3.95;;;12.00;99.90;;;;;;5047374;28;20751;-63
2023/05/29 06:52:38;;;;;;;17.20;3.45;;;12.10;99.90;;;;;;5065506;28;20210;-63
2023/05/29 06:55:07;;;;;;;22.52;3.67;;;12.00;99.90;;;;;;5046564;28;20211;-63
2023/05/29 06:57:34;;;;;;;16.35;3.53;;;12.00;99.90;;;;;;5068232;28;20196;-63
2023/05/29 07:00:01;;;;;;;13.85;2.95;;;12.10;99.90;;;;;;5007663;28;20212;-63
2023/05/29 07:02:28;;;;;;;11.30;2.92;;;12.10;99.90;;;;;;5044050;28;20231;-63
2023/05/29 07:04:55;;;;;;;10.63;3.17;;;12.00;99.90;;;;;;5051907;28;20458;-63
2023/05/29 07:07:22;;;;;;;20.05;3.75;;;12.00;99.90;;;;;;5040240;28;20220;-63
2023/05/29 07:09:48;;;;;;;9.20;2.42;;;12.00;99.90;;;;;;5049816;28;20229;-63
2023/05/29 07:12:17;;;;;;;17.48;4.28;;;12.00;99.90;;;;;;5062082;28;20400;-63
2023/05/29 07:14:45;;;;;;;16.10;4.00;;;12.00;99.90;;;;;;5028486;28;20740;-63
2023/05/29 07:17:12;;;;;;;14.85;3.40;;;12.10;99.90;;;;;;5046202;28;20397;-63
2023/05/29 07:19:39;;;;;;;23.60;3.67;;;12.20;99.90;;;;;;5062767;28;20204;-63
2023/05/29 07:22:06;;;;;;;22.70;2.78;;;12.10;99.90;;;;;;5034910;28;20495;-63
2023/05/29 07:24:33;;;;;;;12.18;2.85;;;12.10;99.90;;;;;;5054905;28;20579;-63
2023/05/29 07:26:59;;;;;;;16.35;3.03;;;11.90;99.90;;;;;;5061034;28;20192;-63
2023/05/29 07:29:27;;;;;;;17.10;3.85;;;11.90;99.90;;;;;;5033958;28;20239;-63
2023/05/29 07:31:55;;;;;;;13.25;3.03;;;12.00;99.90;;;;;;5050983;28;20675;-63
2023/05/29 07:34:24;;;;;;;13.90;3.10;;;12.20;99.90;;;;;;5057406;28;20204;-63
2023/05/29 07:36:59;;;;;;;12.00;2.05;;;12.20;99.90;;;;;;5030862;28;21152;-63
2023/05/29 07:39:26;;;;;;;15.65;3.63;;;12.10;99.90;;;;;;5032006;28;20693;-63
2023/05/29 07:41:53;;;;;;;10.75;3.22;;;12.10;99.90;;;;;;5069068;28;20201;-63
2023/05/29 07:44:20;;;;;;;15.73;3.17;;;12.20;99.90;;;;;;5047737;28;20197;-63
2023/05/29 07:46:49;;;;;;;14.98;3.20;;;12.30;99.90;;;;;;5043911;28;20633;-63
2023/05/29 07:49:15;;;;;;;13.27;3.28;;;12.20;99.90;;;;;;5065543;28;20216;-63
2023/05/29 07:51:42;;;;;;;13.48;3.33;;;12.20;99.90;;;;;;5061957;28;20401;-63
2023/05/29 07:54:09;;;;;;;9.55;2.30;;;12.20;99.90;;;;;;5053542;28;20235;-63
2023/05/29 07:56:37;;;;;;;14.27;2.80;;;12.30;99.90;;;;;;5049178;28;20522;-63
2023/05/29 07:59:04;;;;;;;11.30;2.60;;;12.30;99.90;;;;;;5062850;28;22073;-63
2023/05/29 08:01:31;;;;;;;18.77;4.03;;;12.30;99.90;;;;;;5023940;28;20700;-63
2023/05/29 08:03:59;;;;;;;7.65;2.78;;;12.30;99.90;;;;;;5037057;28;20204;-63
2023/05/29 08:06:26;;;;;;;10.98;2.88;;;12.30;99.90;;;;;;5064948;28;20212;-63
2023/05/29 08:08:53;;;;;;;12.00;3.28;;;12.30;99.90;;;;;;5055713;28;20270;-63
2023/05/29 08:11:19;;;;;;;18.52;3.42;;;12.30;99.90;;;;;;5048490;28;20765;-63
2023/05/29 08:13:46;;;;;;;14.23;2.83;;;12.30;99.90;;;;;;5068307;28;20198;-63
2023/05/29 08:16:16;;;;;;;10.85;2.88;;;12.30;99.90;;;;;;5053949;28;20196;-63
2023/05/29 08:18:46;;;;;;;13.85;2.88;;;12.50;99.90;;;;;;5042223;28;20355;-63
2023/05/29 08:21:14;;;;;;;14.65;4.05;;;12.50;99.90;;;;;;5066624;28;20288;-63
2023/05/29 08:23:41;;;;;;;12.27;3.20;;;12.50;99.90;;;;;;5066144;28;20422;-63
2023/05/29 08:26:08;;;;;;;15.93;3.10;;;12.60;99.90;;;;;;5050407;28;20238;-63
2023/05/29 08:28:34;;;;;;;14.32;3.45;;;12.50;99.90;;;;;;5054702;28;20200;-63
2023/05/29 08:31:01;;;;;;;12.73;3.30;;;12.40;99.90;;;;;;5066678;28;20224;-63
2023/05/29 08:33:29;;;;;;;13.57;2.58;;;12.40;99.90;;;;;;5029405;28;20215;-63
2023/05/29 08:35:55;;;;;;;9.35;2.90;;;12.40;99.90;;;;;;5054067;28;20251;-63
2023/05/29 08:38:25;;;;;;;15.70;2.95;;;12.50;99.90;;;;;;5062375;28;20207;-63
2023/05/29 08:40:52;;;;;;;10.27;3.03;;;12.50;99.90;;;;;;5052517;28;20253;-63
2023/05/29 08:43:23;;;;;;;17.85;3.15;;;12.60;99.90;;;;;;5052339;28;20787;-63
2023/05/29 08:45:54;;;;;;;14.10;3.40;;;12.70;99.90;;;;;;5068197;28;20196;-63
2023/05/29 08:48:24;;;;;;;9.93;2.60;;;12.80;99.90;;;;;;5016115;28;20733;-63
2023/05/29 08:50:54;;;;;;;12.45;3.00;;;13.30;99.90;;;;;;5051815;28;20247;-63
2023/05/29 08:53:24;;;;;;;12.30;2.83;;;13.00;99.90;;;;;;5041546;28;20417;-63
2023/05/29 08:55:52;;;;;;;10.27;2.83;;;13.10;99.90;;;;;;5047167;28;20574;-63
2023/05/29 08:58:20;;;;;;;8.40;2.60;;;13.10;99.90;;;;;;5028083;28;20200;-63
2023/05/29 09:00:48;;;;;;;17.27;3.35;;;13.10;99.90;;;;;;5066377;28;20196;-63
2023/05/29 09:03:15;;;;;;;16.30;3.00;;;13.10;99.90;;;;;;5028194;28;20192;-63
2023/05/29 09:05:43;;;;;;;9.35;2.90;;;13.10;99.90;;;;;;5046543;28;20201;-63
2023/05/29 09:08:11;;;;;;;20.40;3.50;;;13.10;99.90;;;;;;5059412;28;20253;-63
2023/05/29 09:10:41;;;;;;;8.27;2.53;;;13.10;99.90;;;;;;5060965;28;20310;-63
2023/05/29 09:13:09;;;;;;;12.75;2.55;;;13.10;99.90;;;;;;5037706;28;20207;-63
2023/05/29 09:15:38;;;;;;;10.60;2.50;;;13.00;99.90;;;;;;5057274;28;20196;-63
2023/05/29 09:18:05;;;;;;;10.48;2.65;;;13.10;99.90;;;;;;5045346;28;20287;-63
2023/05/29 09:20:32;;;;;;;19.08;3.55;;;13.00;99.90;;;;;;5033905;28;20632;-63
2023/05/29 09:23:02;;;;;;;18.23;2.95;;;13.00;99.90;;;;;;5059999;28;20200;-63
2023/05/29 09:25:30;;;;;;;18.50;3.08;;;13.00;99.90;;;;;;5057413;28;20273;-63
2023/05/29 09:28:00;;;;;;;16.60;2.92;;;13.10;99.90;;;;;;5046676;28;20443;-63
2023/05/29 09:30:36;;;;;;;12.45;3.08;;;13.20;99.90;;;;;;5045786;28;20228;-63
2023/05/29 09:33:04;;;;;;;17.10;3.38;;;13.20;99.90;;;;;;5057039;28;20314;-63
2023/05/29 09:35:35;;;;;;;15.13;3.33;;;13.20;99.90;;;;;;5022769;28;20208;-63
2023/05/29 09:38:02;;;;;;;12.00;2.83;;;13.20;99.90;;;;;;5055840;28;20208;-63
2023/05/29 09:40:31;;;;;;;14.65;3.30;;;13.20;99.90;;;;;;5061242;28;20197;-63
2023/05/29 09:43:07;;;;;;;12.45;3.05;;;13.30;99.90;;;;;;5048043;28;21050;-63
2023/05/29 09:45:36;;;;;;;15.32;2.72;;;13.40;99.90;;;;;;5048362;28;20206;-63
2023/05/29 09:48:04;;;;;;;12.27;2.90;;;13.40;99.90;;;;;;5056745;28;20207;-63
2023/05/29 09:50:33;;;;;;;9.95;2.88;;;13.20;99.90;;;;;;5019498;28;20232;-63
2023/05/29 09:53:01;;;;;;;14.05;3.33;;;13.30;99.90;;;;;;5047107;28;20241;-63
2023/05/29 09:55:30;;;;;;;10.73;2.75;;;13.50;99.90;;;;;;5059339;28;20204;-63
2023/05/29 09:57:57;;;;;;;13.10;2.97;;;13.50;99.90;;;;;;5022660;28;21196;-63
2023/05/29 10:00:25;;;;;;;13.13;3.03;;;13.60;99.90;;;;;;5045117;28;22237;-63
2023/05/29 10:02:52;;;;;;;10.45;2.50;;;13.70;99.90;;;;;;5056583;28;20975;-63
2023/05/29 10:05:20;;;;;;;8.82;2.47;;;13.70;99.90;;;;;;4974765;28;20269;-63
2023/05/29 10:07:52;;;;;;;15.88;2.88;;;13.80;99.90;;;;;;5037220;28;20486;-62
2023/05/29 10:10:20;;;;;;;13.68;3.38;;;13.70;99.90;;;;;;5027217;28;20240;-63
2023/05/29 10:12:50;;;;;;;14.40;3.08;;;13.80;99.90;;;;;;5060034;28;20295;-63
2023/05/29 10:15:19;;;;;;;11.60;3.03;;;14.10;99.90;;;;;;5037117;28;20212;-64
2023/05/29 10:17:52;;;;;;;11.30;3.53;;;14.20;99.90;;;;;;5067234;28;20306;-63
2023/05/29 10:20:21;;;;;;;12.73;3.35;;;14.30;99.90;;;;;;5029074;28;20200;-64
2023/05/29 10:22:51;;;;;;;12.48;3.22;;;14.20;99.90;;;;;;5064206;28;20203;-63
2023/05/29 10:25:20;;;;;;;9.30;2.42;;;14.10;99.90;;;;;;5052539;28;20574;-63
2023/05/29 10:27:47;;;;;;;15.40;3.42;;;14.10;99.90;;;;;;5060767;28;20203;-63
2023/05/29 10:30:23;;;;;;;13.55;2.85;;;14.10;99.90;;;;;;5040136;28;20220;-63
2023/05/29 10:33:09;;;;;;;12.93;2.88;;;14.10;99.90;;;;;;5054013;28;20195;-63
2023/05/29 10:35:46;;;;;;;11.68;2.72;;;14.10;99.90;;;;;;5021289;28;20814;-63
2023/05/29 10:38:16;;;;;;;17.88;3.47;;;14.10;99.90;;;;;;5062998;28;20273;-63
2023/05/29 10:40:43;;;;;;;12.98;3.58;;;14.20;99.90;;;;;;5040561;28;20226;-63
2023/05/29 10:43:30;;;;;;;8.60;2.50;;;14.20;99.90;;;;;;5053293;28;20214;-63
2023/05/29 10:45:57;;;;;;;12.07;2.50;;;14.30;99.90;;;;;;5051503;28;20268;-63
2023/05/29 10:48:56;;;;;;;20.88;2.92;;;14.40;99.90;;;;;;5053015;28;20216;-63
2023/05/29 10:51:28;;;;;;;17.48;3.40;;;14.20;99.90;;;;;;5028805;28;20239;-63
2023/05/29 10:53:55;;;;;;;10.98;2.67;;;13.90;99.90;;;;;;5054760;28;20220;-63
2023/05/29 10:56:26;;;;;;;18.80;3.17;;;14.00;99.90;;;;;;5054815;28;20709;-63
2023/05/29 10:59:00;;;;;;;12.77;2.80;;;14.10;99.90;;;;;;5049444;28;20891;-63
2023/05/29 11:01:29;;;;;;;12.50;2.92;;;13.90;99.90;;;;;;5041582;28;20317;-63
2023/05/29 11:04:28;;;;;;;13.95;2.97;;;13.80;99.90;;;;;;5053226;28;20231;-63
2023/05/29 11:06:54;;;;;;;22.92;3.60;;;14.00;99.90;;;;;;5017040;28;20345;-63
2023/05/29 11:09:29;;;;;;;21.20;3.60;;;14.20;99.90;;;;;;5057634;28;20200;-63
2023/05/29 11:12:25;;;;;;;12.50;3.03;;;14.30;99.90;;;;;;5046701;28;21106;-63
2023/05/29 11:14:56;;;;;;;11.10;2.45;;;14.30;99.90;;;;;;5060123;28;20276;-63
2023/05/29 11:17:30;;;;;;;12.05;2.55;;;14.30;99.90;;;;;;5047363;28;20232;-63
2023/05/29 11:20:01;;;;;;;10.13;2.90;;;14.40;99.90;;;;;;5058837;28;20915;-63
2023/05/29 11:22:42;;;;;;;19.27;3.53;;;14.20;99.90;;;;;;5027226;28;20200;-63
2023/05/29 11:25:09;;;;;;;11.30;3.00;;;14.40;99.90;;;;;;5064005;28;20444;-63
2023/05/29 11:27:37;;;;;;;17.90;3.03;;;14.40;99.90;;;;;;5048187;28;20203;-63
2023/05/29 11:30:05;;;;;;;14.82;3.50;;;14.40;99.90;;;;;;5061931;28;20411;-63
2023/05/29 11:32:35;;;;;;;10.57;2.67;;;14.40;99.90;;;;;;5048216;28;20211;-63
2023/05/29 11:35:08;;;;;;;10.30;3.03;;;14.40;99.90;;;;;;5056049;28;20295;-63
2023/05/29 11:37:35;;;;;;;8.23;2.45;;;14.20;99.90;;;;;;5050558;28;20202;-63
2023/05/29 11:40:05;;;;;;;12.77;2.95;;;14.00;99.90;;;;;;5031378;28;20407;-63
2023/05/29 11:42:32;;;;;;;12.43;2.72;;;14.10;99.90;;;;;;5061421;28;20215;-63
2023/05/29 11:45:11;;;;;;;14.98;3.58;;;14.20;99.90;;;;;;5048249;28;20231;-63
2023/05/29 11:47:55;;;;;;;18.48;4.00;;;14.20;99.90;;;;;;5057394;28;20197;-63
2023/05/29 11:50:24;;;;;;;12.27;2.80;;;14.30;99.90;;;;;;5047454;28;20250;-63
2023/05/29 11:52:52;;;;;;;16.75;3.50;;;14.10;99.90;;;;;;5065746;28;20645;-63
2023/05/29 11:55:20;;;;;;;13.98;3.20;;;14.20;99.90;;;;;;5033629;28;20396;-63
2023/05/29 11:57:47;;;;;;;9.80;2.67;;;14.20;99.90;;;;;;5056004;28;20201;-63
2023/05/29 12:00:15;;;;;;;8.25;2.20;;;14.20;99.90;;;;;;5051434;28;20407;-63
2023/05/29 12:02:43;;;;;;;12.73;2.78;;;14.20;99.90;;;;;;5065659;28;20206;-63
2023/05/29 12:05:14;;;;;;;11.15;3.15;;;14.30;99.90;;;;;;5046550;28;20204;-63
2023/05/29 12:07:48;;;;;;;13.23;3.03;;;14.40;99.90;;;;;;5039143;28;20447;-63
2023/05/29 12:10:17;;;;;;;17.90;3.22;;;14.30;99.90;;;;;;5034684;28;20322;-63
2023/05/29 12:12:48;;;;;;;11.05;2.78;;;14.40;99.90;;;;;;5059812;28;20286;-63
2023/05/29 12:15:15;;;;;;;16.17;3.47;;;14.40;99.90;;;;;;5060774;28;20204;-63
2023/05/29 12:17:43;;;;;;;14.95;3.85;;;14.50;99.90;;;;;;5067201;28;20273;-63
2023/05/29 12:20:12;;;;;;;14.75;3.20;;;14.50;99.90;;;;;;5061048;28;20200;-63
2023/05/29 12:22:40;;;;;;;11.73;3.10;;;14.60;99.90;;;;;;5067189;28;20575;-63
2023/05/29 12:25:11;;;;;;;10.60;3.00;;;14.70;99.90;;;;;;5040958;28;22887;-63
2023/05/29 12:27:42;;;;;;;13.32;2.95;;;14.70;99.90;;;;;;5069587;28;20257;-63
2023/05/29 12:30:11;;;;;;;13.80;3.17;;;14.60;99.90;;;;;;5053624;28;20231;-63
2023/05/29 12:32:38;;;;;;;11.65;3.08;;;14.60;99.90;;;;;;5064763;28;20374;-63
2023/05/29 12:35:16;;;;;;;13.45;3.13;;;14.60;99.90;;;;;;5056826;28;20215;-63
2023/05/29 12:37:44;;;;;;;18.15;3.30;;;14.60;99.90;;;;;;5063029;28;20203;-63
2023/05/29 12:40:16;;;;;;;13.32;3.08;;;14.60;99.90;;;;;;5032003;28;20328;-63
2023/05/29 12:42:43;;;;;;;10.13;2.88;;;14.70;99.90;;;;;;5058084;28;20617;-63
2023/05/29 12:45:10;;;;;;;15.02;3.25;;;14.50;99.90;;;;;;5051583;28;20212;-63
2023/05/29 12:47:37;;;;;;;15.90;3.10;;;14.30;99.90;;;;;;5066650;28;20221;-63
2023/05/29 12:50:25;;;;;;;15.35;3.30;;;14.30;99.90;;;;;;5067896;28;20200;-63